sensor_id;sensor_type;location;lat;lon;timestamp;pressure;altitude;pressure_sealevel;temperature;humidity
12203;BME280;6164;42.178;24.622;2023-03-25T00:00:45;99410.53;;;8.04;100.00
12203;BME280;6164;42.178;24.622;2023-03-25T00:03:13;99413.94;;;7.97;100.00
12203;BME280;6164;42.178;24.622;2023-03-25T00:05:39;99412.34;;;7.78;100.00
12203;BME280;6164;42.178;24.622;2023-03-25T00:08:06;99413.91;;;7.89;100.00
12203;BME280;6164;42.178;24.622;2023-03-25T00:10:32;99418.09;;;7.74;100.00
12203;BME280;6164;42.178;24.622;2023-03-25T00:12:58;99410.16;;;7.66;100.00
12203;BME280;6164;42.178;24.622;2023-03-25T00:15:29;99405.28;;;7.53;100.00
12203;BME280;6164;42.178;24.622;2023-03-25T00:17:59;99407.69;;;7.47;100.00
12203;BME280;6164;42.178;24.622;2023-03-25T00:20:26;99403.22;;;7.39;100.00
12203;BME280;6164;42.178;24.622;2023-03-25T00:22:53;99405.56;;;7.25;100.00
12203;BME280;6164;42.178;24.622;2023-03-25T00:25:19;99405.41;;;7.09;100.00
12203;BME280;6164;42.178;24.622;2023-03-25T00:27:46;99399.78;;;7.04;100.00
12203;BME280;6164;42.178;24.622;2023-03-25T00:30:15;99400.94;;;7.01;100.00
12203;BME280;6164;42.178;24.622;2023-03-25T00:32:42;99394.59;;;7.12;100.00
12203;BME280;6164;42.178;24.622;2023-03-25T00:35:11;99397.16;;;7.21;100.00
12203;BME280;6164;42.178;24.622;2023-03-25T00:37:41;99391.97;;;7.29;100.00
12203;BME280;6164;42.178;24.622;2023-03-25T00:40:10;99394.97;;;7.34;100.00
12203;BME280;6164;42.178;24.622;2023-03-25T00:42:36;99394.69;;;7.20;100.00
12203;BME280;6164;42.178;24.622;2023-03-25T00:45:14;99389.13;;;7.05;100.00
12203;BME280;6164;42.178;24.622;2023-03-25T00:47:40;99387.44;;;6.79;100.00
12203;BME280;6164;42.178;24.622;2023-03-25T00:50:08;99381.88;;;6.82;100.00
12203;BME280;6164;42.178;24.622;2023-03-25T00:52:36;99378.88;;;6.77;100.00
12203;BME280;6164;42.178;24.622;2023-03-25T00:55:02;99379.09;;;6.65;100.00
12203;BME280;6164;42.178;24.622;2023-03-25T00:57:29;99379.53;;;6.61;100.00
12203;BME280;6164;42.178;24.622;2023-03-25T00:59:56;99386.91;;;6.75;100.00
12203;BME280;6164;42.178;24.622;2023-03-25T01:02:23;99376.94;;;6.79;100.00
12203;BME280;6164;42.178;24.622;2023-03-25T01:04:49;99381.19;;;6.62;100.00
12203;BME280;6164;42.178;24.622;2023-03-25T01:07:16;99373.09;;;6.55;100.00
12203;BME280;6164;42.178;24.622;2023-03-25T01:09:44;99365.34;;;6.36;100.00
12203;BME280;6164;42.178;24.622;2023-03-25T01:12:11;99364.63;;;6.44;100.00
12203;BME280;6164;42.178;24.622;2023-03-25T01:14:38;99380.53;;;6.33;100.00
12203;BME280;6164;42.178;24.622;2023-03-25T01:17:04;99368.19;;;6.25;100.00
12203;BME280;6164;42.178;24.622;2023-03-25T01:19:31;99359.25;;;6.36;100.00
12203;BME280;6164;42.178;24.622;2023-03-25T01:21:58;99358.84;;;6.40;100.00
12203;BME280;6164;42.178;24.622;2023-03-25T01:24:24;99357.78;;;6.51;100.00
12203;BME280;6164;42.178;24.622;2023-03-25T01:26:52;99351.81;;;6.58;100.00
12203;BME280;6164;42.178;24.622;2023-03-25T01:29:20;99352.72;;;6.67;100.00
12203;BME280;6164;42.178;24.622;2023-03-25T01:31:46;99350.50;;;6.72;100.00
12203;BME280;6164;42.178;24.622;2023-03-25T01:34:13;99353.59;;;6.76;100.00
12203;BME280;6164;42.178;24.622;2023-03-25T01:36:39;99349.19;;;6.76;100.00
12203;BME280;6164;42.178;24.622;2023-03-25T01:39:10;99347.72;;;6.74;100.00
12203;BME280;6164;42.178;24.622;2023-03-25T01:41:40;99342.25;;;6.67;100.00
12203;BME280;6164;42.178;24.622;2023-03-25T01:46:54;99333.00;;;6.81;100.00
12203;BME280;6164;42.178;24.622;2023-03-25T01:49:22;99337.44;;;6.80;100.00
12203;BME280;6164;42.178;24.622;2023-03-25T01:51:52;99335.03;;;6.69;100.00
12203;BME280;6164;42.178;24.622;2023-03-25T01:54:22;99328.06;;;6.60;100.00
12203;BME280;6164;42.178;24.622;2023-03-25T01:56:48;99322.06;;;6.67;100.00
12203;BME280;6164;42.178;24.622;2023-03-25T01:59:16;99317.66;;;6.68;100.00
12203;BME280;6164;42.178;24.622;2023-03-25T02:01:44;99314.88;;;6.69;100.00
12203;BME280;6164;42.178;24.622;2023-03-25T02:04:12;99314.19;;;6.67;100.00
12203;BME280;6164;42.178;24.622;2023-03-25T02:06:42;99320.13;;;6.69;100.00
12203;BME280;6164;42.178;24.622;2023-03-25T02:09:10;99322.91;;;6.68;100.00
12203;BME280;6164;42.178;24.622;2023-03-25T02:11:37;99316.06;;;6.57;100.00
12203;BME280;6164;42.178;24.622;2023-03-25T02:14:04;99322.91;;;6.50;100.00
12203;BME280;6164;42.178;24.622;2023-03-25T02:16:33;99320.56;;;6.47;100.00
12203;BME280;6164;42.178;24.622;2023-03-25T02:22:01;99310.81;;;6.40;100.00
12203;BME280;6164;42.178;24.622;2023-03-25T02:27:43;99299.81;;;6.36;100.00
12203;BME280;6164;42.178;24.622;2023-03-25T02:30:27;99297.19;;;6.36;100.00
12203;BME280;6164;42.178;24.622;2023-03-25T02:35:44;99307.59;;;6.28;100.00
12203;BME280;6164;42.178;24.622;2023-03-25T02:38:18;99310.50;;;6.25;100.00
12203;BME280;6164;42.178;24.622;2023-03-25T02:40:51;99300.25;;;6.14;100.00
12203;BME280;6164;42.178;24.622;2023-03-25T02:43:20;99292.00;;;6.09;100.00
12203;BME280;6164;42.178;24.622;2023-03-25T02:45:50;99303.44;;;6.08;100.00
12203;BME280;6164;42.178;24.622;2023-03-25T02:48:20;99293.16;;;5.97;100.00
12203;BME280;6164;42.178;24.622;2023-03-25T02:50:49;99300.19;;;5.97;100.00
12203;BME280;6164;42.178;24.622;2023-03-25T02:53:18;99284.47;;;5.97;100.00
12203;BME280;6164;42.178;24.622;2023-03-25T02:55:47;99282.59;;;5.89;100.00
12203;BME280;6164;42.178;24.622;2023-03-25T02:58:16;99286.13;;;5.98;100.00
12203;BME280;6164;42.178;24.622;2023-03-25T03:00:43;99274.59;;;6.08;100.00
12203;BME280;6164;42.178;24.622;2023-03-25T03:03:10;99273.06;;;6.15;100.00
12203;BME280;6164;42.178;24.622;2023-03-25T03:05:37;99276.88;;;6.21;100.00
12203;BME280;6164;42.178;24.622;2023-03-25T03:08:13;99274.13;;;6.22;100.00
12203;BME280;6164;42.178;24.622;2023-03-25T03:10:47;99282.34;;;6.27;100.00
12203;BME280;6164;42.178;24.622;2023-03-25T03:13:17;99280.69;;;6.26;100.00
12203;BME280;6164;42.178;24.622;2023-03-25T03:15:48;99273.50;;;6.28;100.00
12203;BME280;6164;42.178;24.622;2023-03-25T03:18:20;99273.97;;;6.24;100.00
12203;BME280;6164;42.178;24.622;2023-03-25T03:20:59;99267.13;;;6.13;100.00
12203;BME280;6164;42.178;24.622;2023-03-25T03:23:32;99265.56;;;6.03;100.00
12203;BME280;6164;42.178;24.622;2023-03-25T03:26:03;99257.06;;;5.91;100.00
12203;BME280;6164;42.178;24.622;2023-03-25T03:28:34;99254.06;;;5.86;100.00
12203;BME280;6164;42.178;24.622;2023-03-25T03:31:03;99251.34;;;5.78;100.00
12203;BME280;6164;42.178;24.622;2023-03-25T03:33:31;99255.19;;;5.84;100.00
12203;BME280;6164;42.178;24.622;2023-03-25T03:36:01;99266.03;;;5.89;100.00
12203;BME280;6164;42.178;24.622;2023-03-25T03:38:31;99263.94;;;5.92;100.00
12203;BME280;6164;42.178;24.622;2023-03-25T03:41:00;99261.94;;;5.77;100.00
12203;BME280;6164;42.178;24.622;2023-03-25T03:43:32;99275.06;;;5.67;100.00
12203;BME280;6164;42.178;24.622;2023-03-25T03:46:03;99270.97;;;5.65;100.00
12203;BME280;6164;42.178;24.622;2023-03-25T03:48:32;99263.66;;;5.68;100.00
12203;BME280;6164;42.178;24.622;2023-03-25T03:51:04;99255.41;;;5.63;100.00
12203;BME280;6164;42.178;24.622;2023-03-25T03:53:33;99261.06;;;5.59;100.00
12203;BME280;6164;42.178;24.622;2023-03-25T03:56:05;99270.03;;;5.56;100.00
12203;BME280;6164;42.178;24.622;2023-03-25T03:58:35;99264.59;;;5.67;100.00
12203;BME280;6164;42.178;24.622;2023-03-25T04:01:05;99268.44;;;5.73;100.00
12203;BME280;6164;42.178;24.622;2023-03-25T04:03:35;99257.66;;;5.76;100.00
12203;BME280;6164;42.178;24.622;2023-03-25T04:06:07;99260.81;;;5.79;100.00
12203;BME280;6164;42.178;24.622;2023-03-25T04:08:38;99253.66;;;5.81;100.00
12203;BME280;6164;42.178;24.622;2023-03-25T04:11:11;99255.59;;;5.79;100.00
12203;BME280;6164;42.178;24.622;2023-03-25T04:13:43;99263.13;;;5.65;100.00
12203;BME280;6164;42.178;24.622;2023-03-25T04:16:12;99268.41;;;5.55;100.00
12203;BME280;6164;42.178;24.622;2023-03-25T04:18:38;99274.19;;;5.49;100.00
12203;BME280;6164;42.178;24.622;2023-03-25T04:21:07;99273.75;;;5.54;100.00
12203;BME280;6164;42.178;24.622;2023-03-25T04:23:34;99275.97;;;5.49;100.00
12203;BME280;6164;42.178;24.622;2023-03-25T04:26:02;99273.09;;;5.42;100.00
12203;BME280;6164;42.178;24.622;2023-03-25T04:28:28;99281.69;;;5.34;100.00
12203;BME280;6164;42.178;24.622;2023-03-25T04:30:57;99286.09;;;5.34;100.00
12203;BME280;6164;42.178;24.622;2023-03-25T04:33:25;99281.84;;;5.33;100.00
12203;BME280;6164;42.178;24.622;2023-03-25T04:35:53;99282.38;;;5.36;100.00
12203;BME280;6164;42.178;24.622;2023-03-25T04:38:20;99293.25;;;5.42;100.00
12203;BME280;6164;42.178;24.622;2023-03-25T04:40:46;99287.31;;;5.39;100.00
12203;BME280;6164;42.178;24.622;2023-03-25T04:43:13;99290.34;;;5.45;100.00
12203;BME280;6164;42.178;24.622;2023-03-25T04:45:39;99292.66;;;5.48;100.00
12203;BME280;6164;42.178;24.622;2023-03-25T04:48:16;99290.44;;;5.53;100.00
12203;BME280;6164;42.178;24.622;2023-03-25T04:50:45;99290.16;;;5.56;100.00
12203;BME280;6164;42.178;24.622;2023-03-25T04:53:12;99299.53;;;5.58;100.00
12203;BME280;6164;42.178;24.622;2023-03-25T04:55:38;99293.56;;;5.66;100.00
12203;BME280;6164;42.178;24.622;2023-03-25T04:58:11;99289.09;;;5.76;100.00
12203;BME280;6164;42.178;24.622;2023-03-25T05:00:38;99289.22;;;5.84;100.00
12203;BME280;6164;42.178;24.622;2023-03-25T05:03:05;99280.50;;;5.93;100.00
12203;BME280;6164;42.178;24.622;2023-03-25T05:05:32;99287.38;;;5.94;100.00
12203;BME280;6164;42.178;24.622;2023-03-25T05:07:59;99290.63;;;6.05;100.00
12203;BME280;6164;42.178;24.622;2023-03-25T05:10:26;99287.13;;;6.14;100.00
12203;BME280;6164;42.178;24.622;2023-03-25T05:12:56;99286.22;;;6.23;100.00
12203;BME280;6164;42.178;24.622;2023-03-25T05:15:26;99287.97;;;6.32;100.00
12203;BME280;6164;42.178;24.622;2023-03-25T05:17:54;99282.34;;;6.45;100.00
12203;BME280;6164;42.178;24.622;2023-03-25T05:20:21;99281.59;;;6.52;100.00
12203;BME280;6164;42.178;24.622;2023-03-25T05:22:49;99284.06;;;6.54;100.00
12203;BME280;6164;42.178;24.622;2023-03-25T05:25:18;99288.56;;;6.61;100.00
12203;BME280;6164;42.178;24.622;2023-03-25T05:27:46;99281.38;;;6.63;100.00
12203;BME280;6164;42.178;24.622;2023-03-25T05:30:13;99281.75;;;6.68;100.00
12203;BME280;6164;42.178;24.622;2023-03-25T05:32:40;99279.88;;;6.61;100.00
12203;BME280;6164;42.178;24.622;2023-03-25T05:35:09;99281.00;;;6.58;100.00
12203;BME280;6164;42.178;24.622;2023-03-25T05:37:36;99281.53;;;6.62;100.00
12203;BME280;6164;42.178;24.622;2023-03-25T05:40:05;99274.69;;;6.69;100.00
12203;BME280;6164;42.178;24.622;2023-03-25T05:42:32;99274.69;;;6.69;100.00
12203;BME280;6164;42.178;24.622;2023-03-25T05:44:59;99279.34;;;6.75;100.00
12203;BME280;6164;42.178;24.622;2023-03-25T05:47:25;99279.63;;;6.90;100.00
12203;BME280;6164;42.178;24.622;2023-03-25T05:49:53;99276.44;;;7.04;100.00
12203;BME280;6164;42.178;24.622;2023-03-25T05:52:19;99275.69;;;7.11;100.00
12203;BME280;6164;42.178;24.622;2023-03-25T05:54:48;99277.22;;;7.22;100.00
12203;BME280;6164;42.178;24.622;2023-03-25T05:57:17;99275.97;;;7.34;100.00
12203;BME280;6164;42.178;24.622;2023-03-25T05:59:44;99281.47;;;7.48;100.00
12203;BME280;6164;42.178;24.622;2023-03-25T06:02:11;99278.25;;;7.54;100.00
12203;BME280;6164;42.178;24.622;2023-03-25T06:04:38;99273.38;;;7.67;100.00
12203;BME280;6164;42.178;24.622;2023-03-25T06:07:05;99279.97;;;7.79;100.00
12203;BME280;6164;42.178;24.622;2023-03-25T06:09:38;99268.03;;;7.93;100.00
12203;BME280;6164;42.178;24.622;2023-03-25T06:12:09;99275.00;;;8.10;100.00
12203;BME280;6164;42.178;24.622;2023-03-25T06:14:37;99275.25;;;8.25;100.00
12203;BME280;6164;42.178;24.622;2023-03-25T06:17:07;99276.59;;;8.37;100.00
12203;BME280;6164;42.178;24.622;2023-03-25T06:19:34;99272.47;;;8.50;100.00
12203;BME280;6164;42.178;24.622;2023-03-25T06:22:03;99272.50;;;8.66;100.00
12203;BME280;6164;42.178;24.622;2023-03-25T06:24:29;99268.72;;;8.77;100.00
12203;BME280;6164;42.178;24.622;2023-03-25T06:26:56;99277.75;;;8.90;100.00
12203;BME280;6164;42.178;24.622;2023-03-25T06:29:22;99273.16;;;9.00;100.00
12203;BME280;6164;42.178;24.622;2023-03-25T06:31:50;99271.50;;;9.15;100.00
12203;BME280;6164;42.178;24.622;2023-03-25T06:34:16;99272.91;;;9.34;100.00
12203;BME280;6164;42.178;24.622;2023-03-25T06:36:43;99263.16;;;9.51;100.00
12203;BME280;6164;42.178;24.622;2023-03-25T06:39:14;99252.41;;;9.68;100.00
12203;BME280;6164;42.178;24.622;2023-03-25T06:41:40;99260.25;;;9.84;100.00
12203;BME280;6164;42.178;24.622;2023-03-25T06:44:07;99252.59;;;9.97;100.00
12203;BME280;6164;42.178;24.622;2023-03-25T06:46:33;99250.06;;;10.12;100.00
12203;BME280;6164;42.178;24.622;2023-03-25T06:49:01;99250.16;;;10.26;100.00
12203;BME280;6164;42.178;24.622;2023-03-25T06:51:28;99247.94;;;10.38;100.00
12203;BME280;6164;42.178;24.622;2023-03-25T06:53:54;99250.00;;;10.50;100.00
12203;BME280;6164;42.178;24.622;2023-03-25T06:56:21;99256.66;;;10.61;100.00
12203;BME280;6164;42.178;24.622;2023-03-25T06:58:47;99257.06;;;10.73;100.00
12203;BME280;6164;42.178;24.622;2023-03-25T07:01:14;99254.22;;;10.82;100.00
12203;BME280;6164;42.178;24.622;2023-03-25T07:03:41;99254.44;;;10.95;100.00
12203;BME280;6164;42.178;24.622;2023-03-25T07:06:12;99254.94;;;11.13;100.00
12203;BME280;6164;42.178;24.622;2023-03-25T07:08:40;99256.19;;;11.32;100.00
12203;BME280;6164;42.178;24.622;2023-03-25T07:11:06;99246.38;;;11.40;100.00
12203;BME280;6164;42.178;24.622;2023-03-25T07:13:33;99251.50;;;11.56;100.00
12203;BME280;6164;42.178;24.622;2023-03-25T07:15:59;99249.16;;;11.76;100.00
12203;BME280;6164;42.178;24.622;2023-03-25T07:18:26;99246.28;;;11.92;100.00
12203;BME280;6164;42.178;24.622;2023-03-25T07:20:52;99248.25;;;12.05;99.87
12203;BME280;6164;42.178;24.622;2023-03-25T07:23:20;99246.09;;;12.29;99.17
12203;BME280;6164;42.178;24.622;2023-03-25T07:25:47;99242.91;;;12.55;99.22
12203;BME280;6164;42.178;24.622;2023-03-25T07:28:13;99239.56;;;12.67;95.44
12203;BME280;6164;42.178;24.622;2023-03-25T07:30:40;99244.63;;;12.90;93.97
12203;BME280;6164;42.178;24.622;2023-03-25T07:33:07;99250.41;;;13.14;91.96
12203;BME280;6164;42.178;24.622;2023-03-25T07:35:33;99247.63;;;13.29;89.97
12203;BME280;6164;42.178;24.622;2023-03-25T07:38:00;99237.50;;;13.39;88.25
12203;BME280;6164;42.178;24.622;2023-03-25T07:40:28;99242.69;;;13.54;87.27
12203;BME280;6164;42.178;24.622;2023-03-25T07:42:54;99233.78;;;13.68;87.13
12203;BME280;6164;42.178;24.622;2023-03-25T07:45:21;99227.75;;;13.87;85.61
12203;BME280;6164;42.178;24.622;2023-03-25T07:47:47;99233.91;;;14.00;82.52
12203;BME280;6164;42.178;24.622;2023-03-25T07:50:15;99233.16;;;14.13;81.70
12203;BME280;6164;42.178;24.622;2023-03-25T07:52:42;99225.28;;;14.39;81.82
12203;BME280;6164;42.178;24.622;2023-03-25T07:55:08;99223.06;;;14.49;80.57
12203;BME280;6164;42.178;24.622;2023-03-25T07:57:36;99221.66;;;14.73;80.66
12203;BME280;6164;42.178;24.622;2023-03-25T08:00:03;99228.81;;;14.92;78.33
12203;BME280;6164;42.178;24.622;2023-03-25T08:02:30;99220.00;;;15.17;79.23
12203;BME280;6164;42.178;24.622;2023-03-25T08:04:57;99211.81;;;15.25;75.98
12203;BME280;6164;42.178;24.622;2023-03-25T08:07:24;99213.88;;;15.30;76.24
12203;BME280;6164;42.178;24.622;2023-03-25T08:09:52;99218.94;;;15.51;75.09
12203;BME280;6164;42.178;24.622;2023-03-25T08:12:19;99205.34;;;15.78;75.37
12203;BME280;6164;42.178;24.622;2023-03-25T08:14:47;99210.78;;;15.97;74.43
12203;BME280;6164;42.178;24.622;2023-03-25T08:17:13;99220.13;;;16.19;72.13
12203;BME280;6164;42.178;24.622;2023-03-25T08:19:40;99229.31;;;16.23;68.92
12203;BME280;6164;42.178;24.622;2023-03-25T08:22:06;99229.13;;;16.24;67.86
12203;BME280;6164;42.178;24.622;2023-03-25T08:24:33;99223.31;;;16.34;68.94
12203;BME280;6164;42.178;24.622;2023-03-25T08:26:59;99216.91;;;16.48;68.35
12203;BME280;6164;42.178;24.622;2023-03-25T08:29:26;99218.34;;;16.50;66.27
12203;BME280;6164;42.178;24.622;2023-03-25T08:31:55;99206.72;;;16.69;66.58
12203;BME280;6164;42.178;24.622;2023-03-25T08:34:21;99208.59;;;16.87;66.90
12203;BME280;6164;42.178;24.622;2023-03-25T08:36:48;99218.38;;;16.99;66.88
12203;BME280;6164;42.178;24.622;2023-03-25T08:39:15;99210.09;;;17.07;66.85
12203;BME280;6164;42.178;24.622;2023-03-25T08:41:42;99206.41;;;17.27;66.87
12203;BME280;6164;42.178;24.622;2023-03-25T08:44:09;99202.81;;;17.39;65.93
12203;BME280;6164;42.178;24.622;2023-03-25T08:46:36;99201.88;;;17.52;65.47
12203;BME280;6164;42.178;24.622;2023-03-25T08:49:04;99192.91;;;17.64;65.74
12203;BME280;6164;42.178;24.622;2023-03-25T08:51:30;99194.59;;;17.77;65.27
12203;BME280;6164;42.178;24.622;2023-03-25T08:53:57;99198.50;;;17.92;62.76
12203;BME280;6164;42.178;24.622;2023-03-25T08:56:25;99203.63;;;18.12;61.79
12203;BME280;6164;42.178;24.622;2023-03-25T08:58:51;99196.91;;;18.21;61.13
12203;BME280;6164;42.178;24.622;2023-03-25T09:01:17;99193.31;;;18.27;61.15
12203;BME280;6164;42.178;24.622;2023-03-25T09:03:45;99187.00;;;18.40;61.28
12203;BME280;6164;42.178;24.622;2023-03-25T09:06:13;99188.66;;;18.52;60.97
12203;BME280;6164;42.178;24.622;2023-03-25T09:08:40;99188.91;;;18.62;59.64
12203;BME280;6164;42.178;24.622;2023-03-25T09:11:06;99183.09;;;18.65;59.29
12203;BME280;6164;42.178;24.622;2023-03-25T09:13:33;99174.88;;;18.78;59.69
12203;BME280;6164;42.178;24.622;2023-03-25T09:15:59;99171.19;;;18.91;59.97
12203;BME280;6164;42.178;24.622;2023-03-25T09:18:26;99191.66;;;19.08;57.92
12203;BME280;6164;42.178;24.622;2023-03-25T09:20:57;99201.66;;;19.24;56.21
12203;BME280;6164;42.178;24.622;2023-03-25T09:23:25;99200.66;;;19.37;56.37
12203;BME280;6164;42.178;24.622;2023-03-25T09:25:51;99204.13;;;19.37;54.63
12203;BME280;6164;42.178;24.622;2023-03-25T09:28:18;99192.25;;;19.33;55.57
12203;BME280;6164;42.178;24.622;2023-03-25T09:30:44;99176.06;;;19.51;56.92
12203;BME280;6164;42.178;24.622;2023-03-25T09:33:11;99165.19;;;19.70;57.06
12203;BME280;6164;42.178;24.622;2023-03-25T09:35:38;99179.13;;;19.83;55.21
12203;BME280;6164;42.178;24.622;2023-03-25T09:38:05;99168.25;;;20.01;56.22
12203;BME280;6164;42.178;24.622;2023-03-25T09:40:33;99170.69;;;20.31;55.31
12203;BME280;6164;42.178;24.622;2023-03-25T09:43:01;99177.56;;;20.55;54.49
12203;BME280;6164;42.178;24.622;2023-03-25T09:45:31;99164.22;;;20.60;54.48
12203;BME280;6164;42.178;24.622;2023-03-25T09:48:00;99181.06;;;20.88;53.36
12203;BME280;6164;42.178;24.622;2023-03-25T09:50:28;99179.03;;;21.12;52.66
12203;BME280;6164;42.178;24.622;2023-03-25T09:52:56;99184.38;;;21.29;52.26
12203;BME280;6164;42.178;24.622;2023-03-25T09:55:26;99185.50;;;21.49;51.69
12203;BME280;6164;42.178;24.622;2023-03-25T09:57:56;99175.75;;;21.65;51.30
12203;BME280;6164;42.178;24.622;2023-03-25T10:00:25;99184.75;;;21.75;50.63
12203;BME280;6164;42.178;24.622;2023-03-25T10:02:53;99201.59;;;21.87;48.88
12203;BME280;6164;42.178;24.622;2023-03-25T10:05:32;99170.53;;;21.96;50.88
12203;BME280;6164;42.178;24.622;2023-03-25T10:08:03;99173.56;;;22.05;50.43
12203;BME280;6164;42.178;24.622;2023-03-25T10:10:34;99169.75;;;22.01;49.67
12203;BME280;6164;42.178;24.622;2023-03-25T10:13:06;99174.66;;;21.82;48.55
12203;BME280;6164;42.178;24.622;2023-03-25T10:15:36;99149.09;;;21.80;50.58
12203;BME280;6164;42.178;24.622;2023-03-25T10:18:24;99153.81;;;21.94;49.32
12203;BME280;6164;42.178;24.622;2023-03-25T10:20:57;99156.72;;;21.88;49.13
12203;BME280;6164;42.178;24.622;2023-03-25T10:23:29;99154.28;;;21.86;49.34
12203;BME280;6164;42.178;24.622;2023-03-25T10:26:00;99152.31;;;22.03;49.01
12203;BME280;6164;42.178;24.622;2023-03-25T10:28:31;99161.13;;;22.21;48.43
12203;BME280;6164;42.178;24.622;2023-03-25T10:30:58;99149.13;;;22.33;47.90
12203;BME280;6164;42.178;24.622;2023-03-25T10:33:27;99152.34;;;22.30;47.39
12203;BME280;6164;42.178;24.622;2023-03-25T10:35:56;99136.47;;;22.29;47.70
12203;BME280;6164;42.178;24.622;2023-03-25T10:38:24;99129.63;;;22.48;47.98
12203;BME280;6164;42.178;24.622;2023-03-25T10:40:54;99137.88;;;22.63;47.46
12203;BME280;6164;42.178;24.622;2023-03-25T10:43:26;99172.06;;;22.67;45.31
12203;BME280;6164;42.178;24.622;2023-03-25T10:45:55;99160.56;;;22.77;46.89
12203;BME280;6164;42.178;24.622;2023-03-25T10:48:23;99183.75;;;22.78;44.52
12203;BME280;6164;42.178;24.622;2023-03-25T10:50:52;99174.31;;;22.80;45.27
12203;BME280;6164;42.178;24.622;2023-03-25T10:53:24;99200.44;;;22.80;43.85
12203;BME280;6164;42.178;24.622;2023-03-25T10:55:54;99177.63;;;22.87;44.63
12203;BME280;6164;42.178;24.622;2023-03-25T10:58:21;99177.13;;;22.95;44.86
12203;BME280;6164;42.178;24.622;2023-03-25T11:00:49;99147.88;;;23.04;45.79
12203;BME280;6164;42.178;24.622;2023-03-25T11:03:18;99156.53;;;23.11;45.23
12203;BME280;6164;42.178;24.622;2023-03-25T11:05:46;99145.53;;;23.17;44.80
12203;BME280;6164;42.178;24.622;2023-03-25T11:08:13;99164.16;;;23.24;43.98
12203;BME280;6164;42.178;24.622;2023-03-25T11:10:40;99163.72;;;23.37;43.95
12203;BME280;6164;42.178;24.622;2023-03-25T11:13:12;99181.56;;;23.48;42.81
12203;BME280;6164;42.178;24.622;2023-03-25T11:15:40;99153.84;;;23.58;44.18
12203;BME280;6164;42.178;24.622;2023-03-25T11:18:10;99170.88;;;23.68;43.14
12203;BME280;6164;42.178;24.622;2023-03-25T11:20:39;99177.94;;;23.84;42.81
12203;BME280;6164;42.178;24.622;2023-03-25T11:23:12;99167.53;;;23.98;42.85
12203;BME280;6164;42.178;24.622;2023-03-25T11:25:42;99165.94;;;24.07;43.06
12203;BME280;6164;42.178;24.622;2023-03-25T11:28:10;99169.44;;;24.12;42.78
12203;BME280;6164;42.178;24.622;2023-03-25T11:30:37;99172.44;;;24.21;42.55
12203;BME280;6164;42.178;24.622;2023-03-25T11:33:23;99161.94;;;24.34;42.37
12203;BME280;6164;42.178;24.622;2023-03-25T11:35:52;99171.13;;;24.48;41.36
12203;BME280;6164;42.178;24.622;2023-03-25T11:38:19;99174.94;;;24.62;41.11
12203;BME280;6164;42.178;24.622;2023-03-25T11:40:48;99155.53;;;24.76;42.65
12203;BME280;6164;42.178;24.622;2023-03-25T11:43:18;99157.13;;;24.87;41.72
12203;BME280;6164;42.178;24.622;2023-03-25T11:45:46;99167.94;;;24.87;41.11
12203;BME280;6164;42.178;24.622;2023-03-25T11:48:14;99147.41;;;24.96;41.73
12203;BME280;6164;42.178;24.622;2023-03-25T11:50:43;99172.50;;;25.01;40.96
12203;BME280;6164;42.178;24.622;2023-03-25T11:53:13;99172.78;;;25.05;40.52
12203;BME280;6164;42.178;24.622;2023-03-25T11:55:43;99186.56;;;24.98;39.59
12203;BME280;6164;42.178;24.622;2023-03-25T11:58:12;99171.16;;;25.14;40.72
12203;BME280;6164;42.178;24.622;2023-03-25T12:00:46;99163.56;;;25.36;40.24
12203;BME280;6164;42.178;24.622;2023-03-25T12:03:15;99167.03;;;25.61;39.24
12203;BME280;6164;42.178;24.622;2023-03-25T12:05:46;99196.44;;;25.78;38.75
12203;BME280;6164;42.178;24.622;2023-03-25T12:08:23;99216.66;;;25.90;37.42
12203;BME280;6164;42.178;24.622;2023-03-25T12:10:53;99194.44;;;26.04;39.04
12203;BME280;6164;42.178;24.622;2023-03-25T12:13:26;99219.88;;;26.08;37.87
12203;BME280;6164;42.178;24.622;2023-03-25T12:16:00;99225.53;;;26.11;37.61
12203;BME280;6164;42.178;24.622;2023-03-25T12:18:45;99222.25;;;26.19;38.14
12203;BME280;6164;42.178;24.622;2023-03-25T12:21:16;99228.44;;;26.20;36.96
12203;BME280;6164;42.178;24.622;2023-03-25T12:23:50;99255.72;;;26.33;36.25
12203;BME280;6164;42.178;24.622;2023-03-25T12:26:21;99243.78;;;26.39;36.67
12203;BME280;6164;42.178;24.622;2023-03-25T12:29:03;99262.28;;;26.22;35.91
12203;BME280;6164;42.178;24.622;2023-03-25T12:31:35;99256.22;;;26.45;36.50
12203;BME280;6164;42.178;24.622;2023-03-25T12:34:07;99228.53;;;26.53;36.89
12203;BME280;6164;42.178;24.622;2023-03-25T12:36:40;99248.63;;;26.47;36.49
12203;BME280;6164;42.178;24.622;2023-03-25T12:39:14;99254.03;;;26.47;36.41
12203;BME280;6164;42.178;24.622;2023-03-25T12:41:48;99248.19;;;26.25;37.09
12203;BME280;6164;42.178;24.622;2023-03-25T12:44:21;99247.44;;;26.10;36.05
12203;BME280;6164;42.178;24.622;2023-03-25T12:46:59;99241.53;;;26.03;36.87
12203;BME280;6164;42.178;24.622;2023-03-25T12:49:35;99226.06;;;26.08;36.93
12203;BME280;6164;42.178;24.622;2023-03-25T12:52:05;99226.06;;;26.08;36.63
12203;BME280;6164;42.178;24.622;2023-03-25T12:54:38;99228.59;;;25.79;36.53
12203;BME280;6164;42.178;24.622;2023-03-25T12:57:11;99241.84;;;25.86;36.13
12203;BME280;6164;42.178;24.622;2023-03-25T13:00:06;99219.31;;;26.11;36.63
12203;BME280;6164;42.178;24.622;2023-03-25T13:05:25;99211.78;;;26.46;36.38
12203;BME280;6164;42.178;24.622;2023-03-25T13:07:56;99197.59;;;26.64;36.12
12203;BME280;6164;42.178;24.622;2023-03-25T13:10:29;99230.34;;;26.73;34.68
12203;BME280;6164;42.178;24.622;2023-03-25T13:12:58;99256.13;;;26.60;34.66
12203;BME280;6164;42.178;24.622;2023-03-25T13:15:26;99229.47;;;26.77;35.33
12203;BME280;6164;42.178;24.622;2023-03-25T13:17:55;99238.94;;;26.85;35.02
12203;BME280;6164;42.178;24.622;2023-03-25T13:20:23;99229.25;;;27.07;34.36
12203;BME280;6164;42.178;24.622;2023-03-25T13:22:51;99266.22;;;26.93;34.19